Time;durP1;ratioP1;P1;durP2;ratioP2;P2;SDS_P1;SDS_P2;PMS_P1;PMS_P2;Temp;Humidity;BMP_temperature;BMP_pressure;BME280_temperature;BME280_humidity;BME280_pressure;Samples;Min_cycle;Max_cycle;Signal;HPM_P1;HPM_P2
2021/08/29 00:01:45;;;;;;;9.85;3.03;;;14.60;91.80;;;;;;5092346;28;20398;-92
2021/08/29 00:04:10;;;;;;;4.37;2.90;;;14.60;92.00;;;;;;5092236;28;20382;-92
2021/08/29 00:06:36;;;;;;;7.53;3.17;;;14.60;92.20;;;;;;5092141;28;20381;-90
2021/08/29 00:09:05;;;;;;;7.78;3.38;;;14.60;92.10;;;;;;5092264;28;20461;-92
2021/08/29 00:11:30;;;;;;;10.15;3.42;;;14.50;92.50;;;;;;5091873;28;20862;-91
2021/08/29 00:13:56;;;;;;;8.95;3.35;;;14.60;92.10;;;;;;5090798;28;20456;-91
2021/08/29 00:16:22;;;;;;;9.87;3.23;;;14.60;92.20;;;;;;5091734;28;20404;-89
2021/08/29 00:18:47;;;;;;;6.90;3.20;;;14.70;91.60;;;;;;5091941;28;20427;-89
2021/08/29 00:21:13;;;;;;;9.80;3.78;;;14.70;92.00;;;;;;5092039;28;20408;-90
2021/08/29 00:23:38;;;;;;;7.17;3.30;;;14.60;91.70;;;;;;5090865;28;20390;-91
2021/08/29 00:26:04;;;;;;;9.97;3.50;;;14.50;92.00;;;;;;5092013;28;20389;-89
2021/08/29 00:28:29;;;;;;;7.05;3.20;;;14.60;92.00;;;;;;5092013;28;20367;-91
2021/08/29 00:30:55;;;;;;;13.40;3.77;;;14.60;92.10;;;;;;5092097;28;20378;-92
2021/08/29 00:33:20;;;;;;;7.13;3.17;;;14.60;91.90;;;;;;5091884;28;20445;-89
2021/08/29 00:35:46;;;;;;;9.35;4.88;;;14.70;91.90;;;;;;5092255;28;20370;-92
2021/08/29 00:38:11;;;;;;;7.50;3.67;;;14.60;92.20;;;;;;5091820;28;20442;-90
2021/08/29 00:40:37;;;;;;;11.77;3.95;;;14.70;92.20;;;;;;5090550;28;20390;-91
2021/08/29 00:43:03;;;;;;;7.45;3.78;;;14.70;92.20;;;;;;5091738;28;20389;-92
2021/08/29 00:45:29;;;;;;;8.40;4.53;;;14.70;92.10;;;;;;5092299;28;20384;-92
2021/08/29 00:47:54;;;;;;;10.45;4.45;;;14.60;92.30;;;;;;5091647;28;20362;-89
2021/08/29 00:50:20;;;;;;;11.20;4.27;;;14.60;92.50;;;;;;5091724;28;20378;-91
2021/08/29 00:52:45;;;;;;;8.17;4.30;;;14.50;92.70;;;;;;5091603;28;20375;-90
2021/08/29 00:55:12;;;;;;;9.00;4.13;;;14.60;92.50;;;;;;5091878;28;20398;-92
2021/08/29 00:57:41;;;;;;;9.27;4.10;;;14.70;92.40;;;;;;5090872;28;20377;-92
2021/08/29 01:00:08;;;;;;;10.82;4.57;;;14.60;92.30;;;;;;5092016;28;20378;-89
2021/08/29 01:02:34;;;;;;;9.45;4.35;;;14.60;92.60;;;;;;5090935;28;20774;-93
2021/08/29 01:05:04;;;;;;;12.23;5.10;;;14.50;92.40;;;;;;5090190;28;20415;-92
2021/08/29 01:07:36;;;;;;;6.88;3.95;;;14.50;92.60;;;;;;5082029;28;20607;-94
2021/08/29 01:10:10;;;;;;;11.75;4.50;;;14.50;92.40;;;;;;5093512;28;20385;-94
2021/08/29 01:12:38;;;;;;;9.27;4.53;;;14.50;92.80;;;;;;5089623;28;20378;-93
2021/08/29 01:15:05;;;;;;;9.18;4.32;;;14.60;92.60;;;;;;5089555;28;20837;-92
2021/08/29 01:17:33;;;;;;;8.82;4.57;;;14.60;92.60;;;;;;5095537;28;20382;-90
2021/08/29 01:20:25;;;;;;;10.68;4.25;;;14.60;92.50;;;;;;5095371;28;20381;-90
2021/08/29 01:22:51;;;;;;;8.55;4.35;;;14.50;92.80;;;;;;5092690;28;20397;-92
2021/08/29 01:25:26;;;;;;;10.57;4.57;;;14.50;93.10;;;;;;5095086;28;20385;-90
2021/08/29 01:28:18;;;;;;;12.98;4.50;;;14.60;92.70;;;;;;5094156;28;20394;-91
2021/08/29 01:30:45;;;;;;;12.52;4.53;;;14.60;92.40;;;;;;5091029;28;20386;-94
2021/08/29 01:33:12;;;;;;;11.77;4.63;;;14.60;92.40;;;;;;5087270;28;20734;-92
2021/08/29 01:35:38;;;;;;;11.18;4.10;;;14.60;92.20;;;;;;5056692;28;20384;-92
2021/08/29 01:38:07;;;;;;;9.60;4.23;;;14.60;92.50;;;;;;5074561;28;20390;-93
2021/08/29 01:40:34;;;;;;;10.25;4.60;;;14.50;92.50;;;;;;5074929;28;20478;-93
2021/08/29 01:43:00;;;;;;;11.15;4.80;;;14.50;92.90;;;;;;5057296;28;20434;-91
2021/08/29 01:45:27;;;;;;;9.37;4.73;;;14.50;92.80;;;;;;5094734;28;20715;-92
2021/08/29 01:47:57;;;;;;;11.32;4.60;;;14.60;92.60;;;;;;5093829;28;20382;-92
2021/08/29 01:50:23;;;;;;;9.90;4.80;;;14.60;92.50;;;;;;5094850;28;20382;-92
2021/08/29 01:52:49;;;;;;;10.95;5.22;;;14.60;92.80;;;;;;5094617;28;20378;-93
2021/08/29 01:55:14;;;;;;;13.70;4.95;;;14.60;92.90;;;;;;5093679;28;20916;-93
2021/08/29 01:57:40;;;;;;;10.40;5.03;;;14.50;92.70;;;;;;5094644;28;20385;-93
2021/08/29 02:00:06;;;;;;;11.47;5.27;;;14.40;93.00;;;;;;5094369;28;20461;-93
2021/08/29 02:02:32;;;;;;;11.70;4.60;;;14.50;92.90;;;;;;5094713;28;20426;-91
2021/08/29 02:04:58;;;;;;;10.25;5.00;;;14.50;92.80;;;;;;5094520;28;20405;-92
2021/08/29 02:07:31;;;;;;;11.38;4.47;;;14.40;93.10;;;;;;5094284;28;20381;-92
2021/08/29 02:10:05;;;;;;;12.90;4.68;;;14.50;92.80;;;;;;5094255;28;20389;-91
2021/08/29 02:12:35;;;;;;;9.73;4.93;;;14.40;92.90;;;;;;5094025;28;20790;-93
2021/08/29 02:15:15;;;;;;;8.55;4.97;;;14.40;93.00;;;;;;5087968;28;20444;-93
2021/08/29 02:17:41;;;;;;;13.23;4.88;;;14.40;93.10;;;;;;5093991;28;20370;-92
2021/08/29 02:20:12;;;;;;;12.35;5.18;;;14.50;93.10;;;;;;5092680;28;20866;-92
2021/08/29 02:22:38;;;;;;;10.93;4.85;;;14.40;92.80;;;;;;5093065;28;20386;-94
2021/08/29 02:25:05;;;;;;;14.45;4.88;;;14.40;93.10;;;;;;5092946;28;20389;-92
2021/08/29 02:27:32;;;;;;;14.23;5.18;;;14.40;92.90;;;;;;5094382;28;20386;-91
2021/08/29 02:29:59;;;;;;;12.05;4.90;;;14.30;93.00;;;;;;5094074;28;20378;-93
2021/08/29 02:32:24;;;;;;;11.38;4.82;;;14.40;93.30;;;;;;5092647;28;20700;-91
2021/08/29 02:34:50;;;;;;;11.65;5.18;;;14.40;92.90;;;;;;5092816;28;20388;-92
2021/08/29 02:37:16;;;;;;;12.33;6.10;;;14.40;92.90;;;;;;5094081;28;20370;-91
2021/08/29 02:39:41;;;;;;;15.40;5.73;;;14.40;93.00;;;;;;5094050;28;20729;-93
2021/08/29 02:42:09;;;;;;;9.63;5.00;;;14.40;93.10;;;;;;5092477;28;20933;-91
2021/08/29 02:44:37;;;;;;;11.05;5.70;;;14.30;93.30;;;;;;5094036;28;20378;-93
2021/08/29 02:47:04;;;;;;;16.47;6.30;;;14.40;93.00;;;;;;5093719;28;20839;-89
2021/08/29 02:49:29;;;;;;;13.88;5.97;;;14.30;93.00;;;;;;5092203;28;20382;-91
2021/08/29 02:51:55;;;;;;;13.13;5.20;;;14.40;93.00;;;;;;5093261;28;20427;-91
2021/08/29 02:54:21;;;;;;;14.13;5.50;;;14.30;93.00;;;;;;5093285;28;20374;-93
2021/08/29 02:56:56;;;;;;;12.70;6.10;;;14.30;93.20;;;;;;5092320;28;20374;-93
2021/08/29 02:59:22;;;;;;;13.98;5.32;;;14.30;93.30;;;;;;5092244;28;20386;-93
2021/08/29 03:01:48;;;;;;;12.83;5.40;;;14.30;93.40;;;;;;5093205;28;20881;-94
2021/08/29 03:04:14;;;;;;;15.53;6.33;;;14.30;93.70;;;;;;5093147;28;20378;-92
2021/08/29 03:06:40;;;;;;;11.83;5.50;;;14.30;93.60;;;;;;5092112;28;20615;-93
2021/08/29 03:09:06;;;;;;;13.73;5.50;;;14.30;93.50;;;;;;5093339;28;20445;-90
2021/08/29 03:11:32;;;;;;;17.85;6.15;;;14.40;93.40;;;;;;5091958;28;20417;-92
2021/08/29 03:13:58;;;;;;;12.40;5.70;;;14.30;93.50;;;;;;5093038;28;20370;-91
2021/08/29 03:16:24;;;;;;;19.30;5.78;;;14.30;93.50;;;;;;5092906;28;20401;-90
2021/08/29 03:18:49;;;;;;;13.77;5.95;;;14.30;93.30;;;;;;5092970;28;20370;-93
2021/08/29 03:21:15;;;;;;;14.13;5.70;;;14.30;93.50;;;;;;5093200;28;20397;-93
2021/08/29 03:23:41;;;;;;;13.47;5.47;;;14.30;93.70;;;;;;5093052;28;20402;-91
2021/08/29 03:26:07;;;;;;;12.23;5.73;;;14.30;93.60;;;;;;5091907;28;20773;-91
2021/08/29 03:28:32;;;;;;;15.97;6.00;;;14.30;93.50;;;;;;5092647;28;20370;-92
2021/08/29 03:30:58;;;;;;;15.68;6.28;;;14.30;93.70;;;;;;5092627;28;20370;-90
2021/08/29 03:33:25;;;;;;;17.45;5.70;;;14.20;93.70;;;;;;5091003;28;20392;-91
2021/08/29 03:35:55;;;;;;;15.90;5.82;;;14.30;93.80;;;;;;5092672;28;20373;-92
2021/08/29 03:38:21;;;;;;;13.20;5.95;;;14.30;93.90;;;;;;5092369;28;20366;-91
2021/08/29 03:40:50;;;;;;;15.95;5.53;;;14.20;94.00;;;;;;5092587;28;20889;-91
2021/08/29 03:43:16;;;;;;;16.63;5.80;;;14.30;94.10;;;;;;5092622;28;20410;-92
2021/08/29 03:45:42;;;;;;;15.60;6.70;;;14.30;93.90;;;;;;5091537;28;20472;-91
2021/08/29 03:48:10;;;;;;;14.88;6.53;;;14.30;93.80;;;;;;5091339;28;20386;-92
2021/08/29 03:50:36;;;;;;;14.93;6.00;;;14.30;94.00;;;;;;5089169;28;20422;-91
2021/08/29 03:53:03;;;;;;;18.35;6.25;;;14.30;94.00;;;;;;5077973;28;20382;-91
2021/08/29 03:55:29;;;;;;;20.55;6.10;;;14.30;94.00;;;;;;5089731;28;20387;-91
2021/08/29 03:57:55;;;;;;;19.25;5.60;;;14.30;93.90;;;;;;5082357;28;20456;-92
2021/08/29 04:00:22;;;;;;;18.90;6.03;;;14.30;93.90;;;;;;5092387;28;20402;-92
2021/08/29 04:02:47;;;;;;;15.85;5.85;;;14.30;94.00;;;;;;5091287;28;20408;-90
2021/08/29 04:05:13;;;;;;;17.40;5.77;;;14.30;93.80;;;;;;5091112;28;20374;-90
2021/08/29 04:07:39;;;;;;;10.63;6.10;;;14.30;93.90;;;;;;5090902;28;20453;-91
2021/08/29 04:10:06;;;;;;;16.13;5.70;;;14.20;94.00;;;;;;5092020;28;20377;-89
2021/08/29 04:12:33;;;;;;;17.23;6.00;;;14.30;94.00;;;;;;5082229;28;20393;-92
2021/08/29 04:14:59;;;;;;;21.67;5.90;;;14.30;93.90;;;;;;5090820;28;20525;-92
2021/08/29 04:17:25;;;;;;;14.83;5.17;;;14.30;93.70;;;;;;5090835;28;20399;-91
2021/08/29 04:19:52;;;;;;;18.98;5.70;;;14.30;94.10;;;;;;5091016;28;20378;-93
2021/08/29 04:22:17;;;;;;;19.30;6.10;;;14.30;94.20;;;;;;5092050;28;20390;-93
2021/08/29 04:24:43;;;;;;;15.65;6.07;;;14.30;94.00;;;;;;5091652;28;20382;-92
2021/08/29 04:27:09;;;;;;;15.68;6.45;;;14.30;94.00;;;;;;5091930;28;20382;-92
2021/08/29 04:29:35;;;;;;;14.02;5.25;;;14.30;93.90;;;;;;5090525;28;20394;-91
2021/08/29 04:32:03;;;;;;;17.90;5.38;;;14.30;93.90;;;;;;5091781;28;20374;-91
2021/08/29 04:34:28;;;;;;;12.73;5.70;;;14.30;94.00;;;;;;5090832;28;20386;-91
2021/08/29 04:36:54;;;;;;;21.23;5.77;;;14.30;93.80;;;;;;5092221;28;20377;-93
2021/08/29 04:39:19;;;;;;;15.03;5.60;;;14.30;93.90;;;;;;5092009;28;20416;-96
2021/08/29 04:41:45;;;;;;;14.27;5.07;;;14.30;94.00;;;;;;5083400;28;20393;-93
2021/08/29 04:44:11;;;;;;;22.67;7.03;;;14.30;93.90;;;;;;5093706;28;20382;-92
2021/08/29 04:46:38;;;;;;;18.25;5.57;;;14.40;94.00;;;;;;5096152;28;20378;-94
2021/08/29 04:49:03;;;;;;;15.15;5.28;;;14.40;93.90;;;;;;5094711;28;20726;-94
2021/08/29 04:51:30;;;;;;;22.43;5.63;;;14.30;94.20;;;;;;5094629;28;20385;-92
2021/08/29 04:53:56;;;;;;;12.45;5.43;;;14.30;94.10;;;;;;5091668;28;20405;-91
2021/08/29 04:56:22;;;;;;;21.83;6.78;;;14.30;94.30;;;;;;5096121;28;20377;-93
2021/08/29 04:58:47;;;;;;;15.90;5.20;;;14.30;94.20;;;;;;5094826;28;20474;-92
2021/08/29 05:01:13;;;;;;;21.08;5.78;;;14.30;94.30;;;;;;5095577;28;20402;-93
2021/08/29 05:03:39;;;;;;;14.27;5.85;;;14.30;94.20;;;;;;5094488;28;20466;-92
2021/08/29 05:06:04;;;;;;;14.80;5.60;;;14.40;94.30;;;;;;5095793;28;20385;-93
2021/08/29 05:08:30;;;;;;;14.17;5.13;;;14.30;94.20;;;;;;5095322;28;20432;-93
2021/08/29 05:10:56;;;;;;;18.90;6.03;;;14.30;94.20;;;;;;5094212;28;20385;-92
2021/08/29 05:13:21;;;;;;;17.83;5.65;;;14.30;94.30;;;;;;5094480;28;20389;-87
2021/08/29 05:15:47;;;;;;;14.33;5.53;;;14.30;94.30;;;;;;5095278;28;20393;-92
2021/08/29 05:18:12;;;;;;;17.00;5.77;;;14.30;94.00;;;;;;5094409;28;20385;-94
2021/08/29 05:20:38;;;;;;;20.05;5.82;;;14.30;94.20;;;;;;5093892;28;20405;-91
2021/08/29 05:23:03;;;;;;;12.97;5.50;;;14.30;94.20;;;;;;5094549;28;20382;-93
2021/08/29 05:25:29;;;;;;;17.00;5.23;;;14.30;94.20;;;;;;5094563;28;20473;-94
2021/08/29 05:27:55;;;;;;;18.45;5.57;;;14.30;94.00;;;;;;5089753;28;20378;-91
2021/08/29 05:30:21;;;;;;;17.87;6.50;;;14.40;93.90;;;;;;5094736;28;20426;-93
2021/08/29 05:32:46;;;;;;;15.27;5.63;;;14.40;93.80;;;;;;5095018;28;20366;-91
2021/08/29 05:35:12;;;;;;;22.30;5.90;;;14.40;94.10;;;;;;5094728;28;20416;-93
2021/08/29 05:37:38;;;;;;;18.45;6.47;;;14.40;93.80;;;;;;5094449;28;20439;-92
2021/08/29 05:40:04;;;;;;;17.52;6.43;;;14.30;94.00;;;;;;5094704;28;20465;-92
2021/08/29 05:42:30;;;;;;;15.03;5.70;;;14.30;93.90;;;;;;5076110;28;20410;-92
2021/08/29 05:44:56;;;;;;;14.80;5.83;;;14.30;94.10;;;;;;5094135;28;20899;-92
2021/08/29 05:47:21;;;;;;;20.63;5.90;;;14.30;94.10;;;;;;5094230;28;20718;-93
2021/08/29 05:49:47;;;;;;;19.05;6.97;;;14.30;94.10;;;;;;5076474;28;20378;-92
2021/08/29 05:52:12;;;;;;;19.00;5.78;;;14.40;94.10;;;;;;5077046;28;20377;-93
2021/08/29 05:54:38;;;;;;;20.53;6.23;;;14.30;94.20;;;;;;5094402;28;20370;-91
2021/08/29 05:57:04;;;;;;;17.93;5.60;;;14.40;94.30;;;;;;5094278;28;20373;-92
2021/08/29 05:59:29;;;;;;;15.85;6.25;;;14.40;94.10;;;;;;5092779;28;20380;-93
2021/08/29 06:01:55;;;;;;;17.38;5.40;;;14.40;94.00;;;;;;5093458;28;20394;-91
2021/08/29 06:04:20;;;;;;;17.77;5.87;;;14.40;93.90;;;;;;5094339;28;20430;-93
2021/08/29 06:06:46;;;;;;;22.83;6.07;;;14.40;94.20;;;;;;5094870;28;20369;-90
2021/08/29 06:09:11;;;;;;;20.45;5.32;;;14.40;94.10;;;;;;5094352;28;20393;-94
2021/08/29 06:11:37;;;;;;;18.17;6.50;;;14.40;94.00;;;;;;5093175;28;20385;-94
2021/08/29 06:14:05;;;;;;;12.47;5.77;;;14.40;93.80;;;;;;5094166;28;20374;-93
2021/08/29 06:16:30;;;;;;;16.52;5.70;;;14.50;93.90;;;;;;5093055;28;20417;-93
2021/08/29 06:18:56;;;;;;;14.10;5.47;;;14.50;94.00;;;;;;5094173;28;20410;-94
2021/08/29 06:21:22;;;;;;;19.00;5.40;;;14.50;93.80;;;;;;5089610;28;20433;-93
2021/08/29 06:23:47;;;;;;;13.67;5.53;;;14.50;93.90;;;;;;5093915;28;20374;-90
2021/08/29 06:26:13;;;;;;;14.90;6.00;;;14.50;93.70;;;;;;5093995;28;20366;-91
2021/08/29 06:28:38;;;;;;;20.40;5.90;;;14.50;93.80;;;;;;5086147;28;20543;-90
2021/08/29 06:31:04;;;;;;;17.05;6.03;;;14.50;94.30;;;;;;5083927;28;20379;-88
2021/08/29 06:33:29;;;;;;;18.17;6.20;;;14.40;94.40;;;;;;5092959;28;20847;-86
2021/08/29 06:35:55;;;;;;;22.47;5.90;;;14.40;94.70;;;;;;5093590;28;20843;-88
2021/08/29 06:38:24;;;;;;;22.58;6.70;;;14.40;95.00;;;;;;5093738;28;20375;-88
2021/08/29 06:40:49;;;;;;;17.25;6.90;;;14.40;95.10;;;;;;5093564;28;20458;-87
2021/08/29 06:43:15;;;;;;;17.63;6.53;;;14.40;95.40;;;;;;5083737;28;21011;-88
2021/08/29 06:45:41;;;;;;;15.40;6.57;;;14.40;95.40;;;;;;5092223;28;20389;-90
2021/08/29 06:48:06;;;;;;;16.63;6.80;;;14.40;95.30;;;;;;5092256;28;20382;-87
2021/08/29 06:50:32;;;;;;;16.67;5.93;;;14.40;95.60;;;;;;5092375;28;20385;-89
2021/08/29 06:52:57;;;;;;;16.13;6.60;;;14.30;95.70;;;;;;5093329;28;20366;-87
2021/08/29 06:55:23;;;;;;;19.67;7.27;;;14.40;95.70;;;;;;5093273;28;20431;-89
2021/08/29 06:57:49;;;;;;;18.27;6.88;;;14.40;95.90;;;;;;5093390;28;20378;-88
2021/08/29 07:00:14;;;;;;;23.17;6.60;;;14.50;95.60;;;;;;5092056;28;20397;-88
2021/08/29 07:02:40;;;;;;;26.33;7.07;;;14.50;95.50;;;;;;5092945;28;20414;-88
2021/08/29 07:05:06;;;;;;;15.85;6.47;;;14.50;95.70;;;;;;5093058;28;20427;-87
2021/08/29 07:07:32;;;;;;;17.20;6.30;;;14.60;95.60;;;;;;5091993;28;20374;-88
2021/08/29 07:09:58;;;;;;;18.52;6.10;;;14.60;95.80;;;;;;5093138;28;20370;-89
2021/08/29 07:12:23;;;;;;;17.10;6.30;;;14.50;96.00;;;;;;5092773;28;20377;-90
2021/08/29 07:14:49;;;;;;;19.77;6.50;;;14.50;96.20;;;;;;5078302;28;20485;-88
2021/08/29 07:17:16;;;;;;;12.68;6.20;;;14.40;96.10;;;;;;5092720;28;20402;-89
2021/08/29 07:19:41;;;;;;;17.38;6.32;;;14.40;96.20;;;;;;5092854;28;20371;-89
2021/08/29 07:22:07;;;;;;;17.17;6.25;;;14.50;96.00;;;;;;5092480;28;20413;-89
2021/08/29 07:24:33;;;;;;;20.77;7.10;;;14.50;95.70;;;;;;5083847;28;20468;-86
2021/08/29 07:26:59;;;;;;;14.77;6.20;;;14.40;95.90;;;;;;5088476;28;20962;-87
2021/08/29 07:29:24;;;;;;;12.37;5.53;;;14.40;96.10;;;;;;5090493;28;20378;-87
2021/08/29 07:31:50;;;;;;;20.63;6.20;;;14.40;96.10;;;;;;5092208;28;20433;-88
2021/08/29 07:34:15;;;;;;;16.98;6.20;;;14.40;95.90;;;;;;5092086;28;20769;-89
2021/08/29 07:36:41;;;;;;;18.00;5.57;;;14.40;95.90;;;;;;5085488;28;20524;-88
2021/08/29 07:39:06;;;;;;;15.30;5.68;;;14.50;95.80;;;;;;5071276;28;20424;-87
2021/08/29 07:41:32;;;;;;;17.13;5.83;;;14.40;95.90;;;;;;5091889;28;20991;-86
2021/08/29 07:43:57;;;;;;;15.37;5.70;;;14.40;96.30;;;;;;5092047;28;20382;-87
2021/08/29 07:46:26;;;;;;;20.63;5.75;;;14.40;96.20;;;;;;5089011;28;20370;-87
2021/08/29 07:48:52;;;;;;;17.08;6.10;;;14.40;95.90;;;;;;5091860;28;20406;-89
2021/08/29 07:51:17;;;;;;;17.23;6.07;;;14.30;96.10;;;;;;5082251;28;20722;-88
2021/08/29 07:53:43;;;;;;;20.90;5.97;;;14.30;96.40;;;;;;5090866;28;20753;-88
2021/08/29 07:56:08;;;;;;;17.30;5.50;;;14.20;96.40;;;;;;5092155;28;20874;-87
2021/08/29 07:58:34;;;;;;;17.17;5.25;;;14.30;96.60;;;;;;5091945;28;20377;-86
2021/08/29 08:00:59;;;;;;;14.27;5.37;;;14.40;96.50;;;;;;5090821;28;20398;-87
2021/08/29 08:03:25;;;;;;;15.10;5.27;;;14.40;96.40;;;;;;5103970;27;20423;-86
2021/08/29 08:05:50;;;;;;;9.40;4.93;;;14.40;96.20;;;;;;5091466;28;20461;-86
2021/08/29 08:08:16;;;;;;;12.33;5.03;;;14.50;96.40;;;;;;5091764;28;20374;-88
2021/08/29 08:10:41;;;;;;;10.87;4.93;;;14.30;96.30;;;;;;5091804;28;20771;-86
2021/08/29 08:13:07;;;;;;;10.57;4.57;;;14.40;96.50;;;;;;5087281;28;20839;-88
2021/08/29 08:15:32;;;;;;;10.47;4.80;;;14.30;96.50;;;;;;5091233;28;20386;-86
2021/08/29 08:17:58;;;;;;;14.60;4.77;;;14.30;96.70;;;;;;5091476;28;20727;-87
2021/08/29 08:20:24;;;;;;;12.10;4.82;;;14.40;96.60;;;;;;5091723;28;20377;-87
2021/08/29 08:22:49;;;;;;;13.60;4.90;;;14.40;96.60;;;;;;5091725;28;20374;-88
2021/08/29 08:25:15;;;;;;;11.03;4.63;;;14.30;96.70;;;;;;5091687;28;20370;-88
2021/08/29 08:27:41;;;;;;;11.65;4.40;;;14.30;96.60;;;;;;5088403;28;20386;-85
2021/08/29 08:30:07;;;;;;;11.32;4.20;;;14.30;96.90;;;;;;5089203;28;20422;-86
2021/08/29 08:32:32;;;;;;;13.07;4.05;;;14.20;96.70;;;;;;5091314;28;20382;-87
2021/08/29 08:34:58;;;;;;;9.00;3.88;;;14.30;96.70;;;;;;5088633;28;20377;-87
2021/08/29 08:37:23;;;;;;;10.25;4.18;;;14.30;96.90;;;;;;5091852;28;20370;-88
2021/08/29 08:39:49;;;;;;;9.97;4.30;;;14.30;96.80;;;;;;5091410;28;20381;-87
2021/08/29 08:42:15;;;;;;;12.83;4.40;;;14.20;96.70;;;;;;5086741;28;20838;-88
2021/08/29 08:44:43;;;;;;;11.70;4.95;;;14.10;96.70;;;;;;5078775;28;20380;-83
2021/08/29 08:47:10;;;;;;;10.68;5.50;;;14.20;96.70;;;;;;5086679;28;20417;-88
2021/08/29 08:49:38;;;;;;;18.02;6.03;;;14.20;96.80;;;;;;5082890;28;20386;-87
2021/08/29 08:52:11;;;;;;;11.52;5.95;;;14.20;96.70;;;;;;5089379;28;20451;-85
2021/08/29 08:54:39;;;;;;;12.00;6.30;;;14.30;96.70;;;;;;5088896;28;20382;-89
2021/08/29 08:57:06;;;;;;;16.05;6.82;;;14.30;96.80;;;;;;5091318;28;20377;-87
2021/08/29 08:59:33;;;;;;;12.85;7.38;;;14.30;96.80;;;;;;5090327;28;20401;-90
2021/08/29 09:01:59;;;;;;;12.48;7.40;;;14.30;96.70;;;;;;5091505;28;20869;-91
2021/08/29 09:04:25;;;;;;;13.02;6.60;;;14.30;96.70;;;;;;5091537;28;20376;-89
2021/08/29 09:06:52;;;;;;;14.00;6.57;;;14.30;96.80;;;;;;5090239;28;20386;-89
2021/08/29 09:09:17;;;;;;;9.88;6.10;;;14.20;96.80;;;;;;5091718;28;20719;-88
2021/08/29 09:11:44;;;;;;;9.37;5.73;;;14.30;96.80;;;;;;5091443;28;20378;-88
2021/08/29 09:14:09;;;;;;;10.70;6.10;;;14.30;96.80;;;;;;5090259;28;20385;-89
2021/08/29 09:16:35;;;;;;;13.70;6.70;;;14.30;96.80;;;;;;5091374;28;20366;-90
2021/08/29 09:19:03;;;;;;;14.13;7.27;;;14.30;96.90;;;;;;5091492;28;20378;-89
2021/08/29 09:21:31;;;;;;;12.45;7.30;;;14.30;96.90;;;;;;5091163;28;20579;-86
2021/08/29 09:23:58;;;;;;;12.55;7.20;;;14.30;97.00;;;;;;5089855;28;20394;-90
2021/08/29 09:26:29;;;;;;;12.07;6.75;;;14.30;96.60;;;;;;5090262;28;20381;-89
2021/08/29 09:28:56;;;;;;;11.15;5.82;;;14.30;97.00;;;;;;5090154;28;20387;-91
2021/08/29 09:31:22;;;;;;;11.13;6.05;;;14.30;96.90;;;;;;5092572;28;20473;-91
2021/08/29 09:34:02;;;;;;;15.80;6.00;;;14.30;96.90;;;;;;5095103;28;20396;-94
2021/08/29 09:36:32;;;;;;;9.02;4.75;;;14.30;96.70;;;;;;5094850;28;20374;-88
2021/08/29 09:39:13;;;;;;;8.40;5.13;;;14.30;96.80;;;;;;5094914;28;20377;-86
2021/08/29 09:41:39;;;;;;;6.90;4.70;;;14.20;96.80;;;;;;5093336;28;20397;-88
2021/08/29 09:44:30;;;;;;;9.15;4.68;;;14.30;96.90;;;;;;5093621;28;20390;-89
2021/08/29 09:46:58;;;;;;;9.07;5.50;;;14.30;97.00;;;;;;5094614;28;20486;-89
2021/08/29 09:49:25;;;;;;;8.30;5.55;;;14.30;97.00;;;;;;5094544;28;20738;-89
2021/08/29 09:51:51;;;;;;;9.38;5.95;;;14.30;97.00;;;;;;5094392;28;20412;-90
2021/08/29 09:54:31;;;;;;;11.18;6.97;;;14.40;97.00;;;;;;5093536;28;20390;-90
2021/08/29 09:56:58;;;;;;;10.82;7.18;;;14.30;96.90;;;;;;5093690;28;20378;-91
2021/08/29 09:59:40;;;;;;;11.43;7.85;;;14.30;97.20;;;;;;5093478;28;20897;-89
2021/08/29 10:02:05;;;;;;;10.45;7.35;;;14.40;97.10;;;;;;5094212;28;20480;-91
2021/08/29 10:04:31;;;;;;;12.32;7.45;;;14.40;97.20;;;;;;5093165;28;20489;-90
2021/08/29 10:07:15;;;;;;;9.80;5.80;;;14.40;97.30;;;;;;5093179;28;20379;-91
2021/08/29 10:09:42;;;;;;;11.98;5.80;;;14.40;97.20;;;;;;5093221;28;20919;-93
2021/08/29 10:12:08;;;;;;;8.57;4.60;;;14.30;97.20;;;;;;5094078;28;20398;-92
2021/08/29 10:14:37;;;;;;;5.97;3.90;;;14.30;97.20;;;;;;5093996;28;20398;-94
2021/08/29 10:17:04;;;;;;;8.00;4.50;;;14.30;97.20;;;;;;5094201;28;20374;-91
2021/08/29 10:19:30;;;;;;;5.82;3.55;;;14.40;97.20;;;;;;5093879;28;20428;-92
2021/08/29 10:21:57;;;;;;;8.07;3.75;;;14.30;97.00;;;;;;5093995;28;20517;-89
2021/08/29 10:24:27;;;;;;;8.03;4.80;;;14.40;97.20;;;;;;5092634;28;20397;-90
2021/08/29 10:26:54;;;;;;;4.70;3.28;;;14.40;97.20;;;;;;5094091;28;20428;-89
2021/08/29 10:29:28;;;;;;;6.00;3.22;;;14.40;97.30;;;;;;5093936;28;20465;-90
2021/08/29 10:32:18;;;;;;;5.77;2.97;;;14.50;97.20;;;;;;5093958;28;20469;-90
2021/08/29 10:34:45;;;;;;;7.13;3.42;;;14.60;97.10;;;;;;5094103;28;20447;-91
2021/08/29 10:37:10;;;;;;;6.72;2.90;;;14.60;97.10;;;;;;5092619;28;20374;-90
2021/08/29 10:39:37;;;;;;;6.03;2.45;;;14.60;97.10;;;;;;5093805;28;20428;-91
2021/08/29 10:42:03;;;;;;;4.47;2.67;;;14.70;96.90;;;;;;5092203;28;20402;-91
2021/08/29 10:44:29;;;;;;;3.83;2.50;;;14.70;96.90;;;;;;5092178;28;20386;-89
2021/08/29 10:46:56;;;;;;;5.93;2.80;;;14.70;96.80;;;;;;5093437;28;20435;-91
2021/08/29 10:49:23;;;;;;;4.75;3.10;;;14.60;96.80;;;;;;5092226;28;20410;-90
2021/08/29 10:51:51;;;;;;;6.28;3.40;;;14.60;96.80;;;;;;5092368;28;20386;-91
2021/08/29 10:54:17;;;;;;;4.85;2.80;;;14.70;96.80;;;;;;5093636;28;20382;-92
2021/08/29 10:56:43;;;;;;;3.60;2.60;;;14.70;96.80;;;;;;5093373;28;20877;-89
2021/08/29 10:59:08;;;;;;;5.63;3.20;;;14.60;96.80;;;;;;5093423;28;20382;-91
2021/08/29 11:01:40;;;;;;;4.70;3.00;;;14.70;96.80;;;;;;5093187;28;20398;-90
2021/08/29 11:04:26;;;;;;;7.72;3.45;;;14.70;96.70;;;;;;5091764;28;20401;-89
2021/08/29 11:07:03;;;;;;;5.73;3.30;;;14.80;96.70;;;;;;5078789;28;20390;-90
2021/08/29 11:09:34;;;;;;;5.43;3.10;;;14.80;96.80;;;;;;5093033;28;20378;-90
2021/08/29 11:12:03;;;;;;;6.63;3.30;;;14.90;96.90;;;;;;5092954;28;20448;-91
2021/08/29 11:14:39;;;;;;;4.60;3.38;;;14.90;96.60;;;;;;5092641;28;20426;-89
2021/08/29 11:17:12;;;;;;;5.25;3.80;;;14.80;96.80;;;;;;5091985;28;20418;-90
2021/08/29 11:19:39;;;;;;;5.40;3.55;;;14.80;96.80;;;;;;5091688;28;20387;-90
2021/08/29 11:22:07;;;;;;;6.65;3.00;;;14.80;96.80;;;;;;5091727;28;20424;-90
2021/08/29 11:24:52;;;;;;;6.05;3.63;;;14.80;96.70;;;;;;5092806;28;20386;-89
2021/08/29 11:27:39;;;;;;;6.43;3.83;;;14.80;97.00;;;;;;5091539;28;20502;-92
2021/08/29 11:30:09;;;;;;;5.07;3.60;;;14.90;96.90;;;;;;5091507;28;20762;-88
2021/08/29 11:32:40;;;;;;;5.90;4.10;;;14.80;96.80;;;;;;5092732;28;20473;-90
2021/08/29 11:35:07;;;;;;;7.63;4.68;;;14.90;96.90;;;;;;5092633;28;20378;-91
2021/08/29 11:37:33;;;;;;;7.57;4.63;;;14.90;96.90;;;;;;5091556;28;20383;-89
2021/08/29 11:40:03;;;;;;;6.03;4.40;;;15.00;96.90;;;;;;5091207;28;20381;-89
2021/08/29 11:42:29;;;;;;;8.02;4.47;;;15.10;96.80;;;;;;5092210;28;20456;-90
2021/08/29 11:44:59;;;;;;;9.18;4.38;;;15.10;96.70;;;;;;5092322;28;20381;-89
2021/08/29 11:47:42;;;;;;;7.03;4.82;;;15.20;96.60;;;;;;5092296;28;20381;-91
2021/08/29 11:50:11;;;;;;;7.15;4.50;;;15.20;96.50;;;;;;5092261;28;20409;-90
2021/08/29 11:52:38;;;;;;;8.13;4.65;;;15.20;96.30;;;;;;5091007;28;20385;-90
2021/08/29 11:55:13;;;;;;;7.35;4.00;;;15.20;96.50;;;;;;5090783;28;20393;-89
2021/08/29 11:57:51;;;;;;;8.85;4.35;;;15.10;96.20;;;;;;5092292;28;20382;-89
2021/08/29 12:00:19;;;;;;;10.13;4.43;;;15.10;96.30;;;;;;5090925;28;20378;-88
2021/08/29 12:02:46;;;;;;;7.78;4.43;;;15.10;96.30;;;;;;5091844;28;20920;-87
2021/08/29 12:05:16;;;;;;;6.18;4.18;;;15.00;96.00;;;;;;5091582;28;20407;-89
2021/08/29 12:08:01;;;;;;;6.95;4.47;;;15.00;96.20;;;;;;5090786;28;20948;-90
2021/08/29 12:10:27;;;;;;;8.90;4.30;;;15.00;96.10;;;;;;5091687;28;20889;-87
2021/08/29 12:12:53;;;;;;;7.35;4.75;;;15.00;96.50;;;;;;5090764;28;20453;-90
2021/08/29 12:15:19;;;;;;;7.93;4.20;;;15.00;96.50;;;;;;5090302;28;20390;-87
2021/08/29 12:17:48;;;;;;;10.10;4.33;;;15.00;96.30;;;;;;5091938;28;20374;-89
2021/08/29 12:20:14;;;;;;;6.72;4.50;;;15.00;96.40;;;;;;5090715;28;20377;-90
2021/08/29 12:22:40;;;;;;;8.90;4.75;;;15.10;96.30;;;;;;5091808;28;20485;-91
2021/08/29 12:25:06;;;;;;;7.57;4.90;;;15.10;96.30;;;;;;5090778;28;20472;-89
2021/08/29 12:27:32;;;;;;;9.20;5.07;;;15.10;96.30;;;;;;5091938;28;20866;-93
2021/08/29 12:29:59;;;;;;;8.77;5.47;;;15.10;96.40;;;;;;5091754;28;20458;-91
2021/08/29 12:32:30;;;;;;;8.47;5.10;;;15.20;96.20;;;;;;5090575;28;20439;-90
2021/08/29 12:34:58;;;;;;;7.65;5.07;;;15.30;96.10;;;;;;5091909;28;20370;-89
2021/08/29 12:37:25;;;;;;;10.75;5.25;;;15.30;95.90;;;;;;5091875;28;20461;-89
2021/08/29 12:40:01;;;;;;;8.10;5.68;;;15.30;95.80;;;;;;5090494;28;20457;-90
2021/08/29 12:42:28;;;;;;;9.20;5.40;;;15.30;96.10;;;;;;5090810;28;20874;-91